Flight Track Log - Related Links

Times and Time Zones

All times are in EDT time to prevent confusion due to time zone crossing. See the GLA33K flight status page for this flight to view local times or setup timezone preferences in your user account.

Time Position Orientation Groundspeed Altitude Reporting Facility
EDT Latitude Longitude Course Direction KTS MPH feet Rate Location/Type
Tue 11:44:02 AM 46.7050 -102.8183 184° South 197 227 8,300  Level Minneapolis Center
Tue 11:45:00 AM 46.3456 -102.9380 187° South  Level Estimated
Tue 11:45:04 AM 46.6408 -102.7958 166° South 234 269 10,000  Level Minneapolis Center
Tue 11:46:00 AM 46.2703 -102.9605 183° South  Level Estimated
Tue 11:46:06 AM 46.5744 -102.7789 170° South 238 274 11,800  Level Minneapolis Center
Tue 11:47:00 AM 46.1984 -102.9213 159° South  Level FlightAware Approximate
Tue 11:47:20 AM 46.5047 -102.7714 176° South 242 278 13,700  Level Minneapolis Center
Tue 11:48:00 AM 46.1264 -102.8823 159° South  Level FlightAware Approximate
Tue 11:48:22 AM 46.4206 -102.7731 181° South 248 285 15,600  Level Minneapolis Center
Tue 11:49:00 AM 46.0513 -102.9062 184° South  Level Estimated
Tue 11:49:24 AM 46.3492 -102.7836 186° South 253 291 17,400  Level Minneapolis Center
Tue 11:50:25 AM 46.2908 -102.7936 187° South 258 297 18,500 1,548 Climbing Minneapolis Center
Tue 11:51:28 AM 46.1894 -102.8081 186° South 262 302 20,600 1,452 Climbing Minneapolis Center
Tue 11:52:29 AM 46.1306 -102.8161 185° South 264 304 21,500 1,220 Climbing Minneapolis Center
Tue 11:53:31 AM 46.0406 -102.8147 179° South 269 310 23,100 1,355 Climbing Minneapolis Center
Tue 11:54:33 AM 45.9664 -102.8133 179° South 267 307 24,300 871 Climbing Minneapolis Center
Tue 11:55:35 AM 45.8925 -102.8217 184° South 267 307 24,900 339 Climbing Minneapolis Center
Tue 11:56:37 AM 45.8139 -102.8419 190° South 277 319 25,000 48 Climbing Minneapolis Center
Tue 11:57:39 AM 45.7175 -102.8672 190° South 290 334 25,000  Level Minneapolis Center
Tue 11:58:41 AM 45.6353 -102.8886 190° South 296 341 25,000  Level Minneapolis Center
Tue 11:59:43 AM 45.5531 -102.9014 186° South 299 344 25,000  Level Minneapolis Center
Tue 12:00:46 PM 45.4586 -102.9197 188° South 300 345 25,000  Level Minneapolis Center
Tue 12:01:48 PM 45.3750 -102.9353 187° South 301 346 25,000  Level Minneapolis Center
Tue 12:02:50 PM 45.2911 -102.9494 187° South 304 350 25,000  Level Minneapolis Center
Tue 12:03:52 PM 45.2072 -102.9617 186° South 304 350 25,000  Level Minneapolis Center
Tue 12:04:53 PM 45.1219 -102.9658 182° South 306 352 25,000  Level Minneapolis Center
Tue 12:05:55 PM 45.0375 -102.9675 181° South 304 350 25,000  Level Minneapolis Center
Tue 12:06:57 PM 44.9356 -102.9642 179° South 306 352 25,000  Level Minneapolis Center
Tue 12:07:59 PM 44.8486 -102.9606 178° South 310 357 25,000  Level Minneapolis Center
Tue 12:09:01 PM 44.7631 -102.9567 178° South 308 354 25,000  Level Minneapolis Center
Tue 12:10:03 PM 44.6772 -102.9536 179° South 309 356 25,000  Level Minneapolis Center
Tue 12:11:05 PM 44.5906 -102.9506 179° South 310 357 25,000  Level Minneapolis Center
Tue 12:12:07 PM 44.5053 -102.9481 179° South 310 357 25,000  Level Minneapolis Center
Tue 12:13:09 PM 44.4200 -102.9472 180° South 309 356 25,000  Level Minneapolis Center
Tue 12:14:10 PM 44.3153 -102.9625 186° South 312 359 25,000  Level Minneapolis Center
Tue 12:15:25 PM 44.2133 -102.9778 186° South 307 353 25,000  Level Denver Center
Tue 12:16:27 PM 44.1289 -102.9917 187° South 307 353 25,000  Level Denver Center
Tue 12:17:41 PM 44.0361 -103.0086 187° South 304 350 25,000  Level Denver Center
Tue 12:18:44 PM 43.9422 -103.0242 187° South 304 350 25,000  Level Denver Center
Tue 12:19:46 PM 43.8469 -103.0350 185° South 305 351 25,000  Level Denver Center
Tue 12:20:48 PM 43.7656 -103.0472 186° South 308 354 25,000  Level Denver Center
Tue 12:21:50 PM 43.6728 -103.0708 190° South 306 352 25,000  Level Denver Center
Tue 12:22:52 PM 43.5933 -103.0936 192° South 304 350 25,000  Level Denver Center
Tue 12:23:54 PM 43.4997 -103.1189 191° South 306 352 25,000  Level Denver Center
Tue 12:24:56 PM 43.4197 -103.1383 190° South 306 352 25,000  Level Denver Center
Tue 12:25:58 PM 43.3536 -103.1589 193° South 305 351 25,000  Level Denver Center
Tue 12:27:00 PM 43.2442 -103.1819 189° South 308 354 25,000  Level Denver Center
Tue 12:28:02 PM 43.1631 -103.1889 184° South 307 353 25,000  Level Denver Center
Tue 12:29:04 PM 43.0686 -103.2022 186° South 306 352 25,000  Level Denver Center
Tue 12:30:06 PM 42.9903 -103.2208 190° South 301 346 25,000  Level Denver Center
Tue 12:31:08 PM 42.8989 -103.2483 192° South 299 344 25,000  Level Denver Center
Tue 12:32:10 PM 42.8225 -103.2750 194° South 295 339 25,000  Level Denver Center
Tue 12:33:12 PM 42.7339 -103.3117 197° South 298 343 25,000  Level Denver Center
Tue 12:34:15 PM 42.6581 -103.3397 195° South 295 339 25,000  Level Denver Center
Tue 12:35:17 PM 42.5697 -103.3642 192° South 289 333 25,000  Level Denver Center
Tue 12:36:19 PM 42.4925 -103.3831 190° South 292 336 25,000  Level Denver Center
Tue 12:37:21 PM 42.4019 -103.3981 187° South 293 337 25,000  Level Denver Center
Tue 12:38:23 PM 42.3239 -103.4083 186° South 294 338 25,000  Level Denver Center
Tue 12:39:25 PM 42.2336 -103.4214 186° South 293 337 25,000  Level Denver Center
Tue 12:40:27 PM 42.1569 -103.4350 187° South 291 335 25,000  Level Denver Center
Tue 12:41:29 PM 42.0811 -103.4483 187° South 287 330 25,000  Level Denver Center
Tue 12:42:31 PM 41.9919 -103.4639 187° South 287 330 25,000  Level Denver Center
Tue 12:43:33 PM 41.9167 -103.4756 187° South 285 328 25,000  Level Denver Center
Tue 12:44:35 PM 41.8283 -103.4883 186° South 284 327 25,000  Level Denver Center
Tue 12:45:37 PM 41.7525 -103.4994 186° South 286 329 25,000  Level Denver Center
Tue 12:46:39 PM 41.6664 -103.5125 186° South 280 322 25,000  Level Denver Center
Tue 12:47:53 PM 41.5936 -103.5211 185° South 277 319 25,000  Level Denver Center
Tue 12:48:56 PM 41.4964 -103.5369 187° South 271 312 25,000  Level Denver Center
Tue 12:49:58 PM 41.4236 -103.5481 187° South 272 313 25,000 -290 Level Denver Center
Tue 12:51:00 PM 41.3428 -103.5617 187° South 263 303 24,400 -919 Descending Denver Center
Tue 12:52:02 PM 41.2708 -103.5758 188° South 269 310 23,100 -1,355 Descending Denver Center
Tue 12:53:04 PM 41.1819 -103.5972 190° South 287 330 21,600 -1,355 Descending Denver Center
Tue 12:54:06 PM 41.1069 -103.6094 187° South 284 327 20,300 -1,355 Descending Denver Center
Tue 12:55:08 PM 41.0186 -103.6203 185° South 283 326 18,800 -1,355 Descending Denver Center
Tue 12:56:10 PM 40.9433 -103.6314 186° South 293 337 17,500 -1,306 Descending Denver Center
Tue 12:57:12 PM 40.8419 -103.6472 187° South 313 360 16,100 -677 Descending Denver Center
Tue 12:58:14 PM 40.7578 -103.6592 186° South 303 349 16,100  Level Denver Center
Tue 12:59:17 PM 40.6739 -103.6689 185° South 299 344 16,100  Level Denver Center
Tue 01:00:19 PM 40.5911 -103.6783 185° South 297 342 16,100 -290 Level Denver Center
Tue 01:01:21 PM 40.5294 -103.7494 221° Southwest 295 339 15,500 -532 Descending Denver Center
Tue 01:02:23 PM 40.4719 -103.8258 225° Southwest 292 336 15,000 -629 Descending Denver Center
Tue 01:03:25 PM 40.4147 -103.9131 229° Southwest 296 341 14,200 -919 Descending Denver Center
Tue 01:04:27 PM 40.3569 -104.0036 230° Southwest 299 344 13,100 -581 Descending Denver Center
Tue 01:05:29 PM 40.3000 -104.0819 226° Southwest 295 339 13,000  Descending Denver Center
Tue 01:06:31 PM 40.2372 -104.1575 223° Southwest 286 329 13,100 48 Climbing Denver Center
Tue 01:07:33 PM 40.1783 -104.2258 222° Southwest 284 327 13,100  Level Denver Center
Tue 01:08:35 PM 40.1153 -104.3000 222° Southwest 284 327 13,100  Level Denver Center
Tue 01:09:37 PM 40.0569 -104.3672 221° Southwest 283 326 13,100  Level Denver Center
Tue 01:10:44 PM 39.9833 -104.4500 221° Southwest 280 322 13,100 -283 Level Denver TRACON
Tue 01:11:44 PM 39.9333 -104.4833 207° Southwest 260 299 12,500 -550 Descending Denver TRACON
Tue 01:12:44 PM 39.8667 -104.4833 180° South 254 292 12,000 -600 Descending Denver TRACON
Tue 01:13:44 PM 39.7833 -104.4833 180° South 267 307 11,300 -726 Descending Denver TRACON
Tue 01:14:48 PM 39.7153 -104.4906 185° South 254 292 10,500 -1,286 Descending Denver Center
Tue 01:15:50 PM 39.6425 -104.4947 183° South 245 282 8,600 -1,210 Descending Denver Center
Tue 01:16:52 PM 39.5767 -104.5058 187° South 246 283 8,000 -339 Descending Denver Center
Tue 01:17:54 PM 39.5608 -104.5867 256° West 237 273 7,900  Descending Denver Center
Tue 01:18:56 PM 39.6075 -104.6422 317° Northwest 213 245 8,000 48 Climbing Denver Center
Tue 01:19:58 PM 39.6594 -104.6433 359° North 180 207 8,000 -48 Level Denver Center
Tue 01:21:00 PM 39.7081 -104.6425 North 164 189 7,900 -484 Descending Denver Center
Tue 01:22:02 PM 39.7575 -104.6428 360° North 175 201 7,000 -871 Descending Denver Center
Tue 01:23:04 PM 39.8031 -104.6431 360° North 154 177 6,100 -780 Descending Denver Center
Tue 01:24:05 PM 39.8386 -104.6419 North 139 160 5,400 -689 Descending Denver Center

Login

Don't have an account? Register now (free) for customized features, flight alerts, and more!